Time;durP1;ratioP1;P1;durP2;ratioP2;P2;SDS_P1;SDS_P2;PMS_P1;PMS_P2;Temp;Humidity;BMP_temperature;BMP_pressure;BME280_temperature;BME280_humidity;BME280_pressure;Samples;Min_cycle;Max_cycle;Signal;HPM_P1;HPM_P2
2021/10/22 00:00:34;;;;;;;1.30;0.70;;;;;;;10.64;59.43;98793.15;114871;1192;139047;-83
2021/10/22 00:03:22;;;;;;;1.50;0.70;;;;;;;10.36;59.74;98807.73;113784;1193;97558;-83
2021/10/22 00:06:09;;;;;;;1.40;0.70;;;;;;;10.15;60.09;98807.47;113597;1192;137328;-82
2021/10/22 00:08:56;;;;;;;2.90;0.80;;;;;;;9.95;60.36;98814.61;113921;1193;111798;-82
2021/10/22 00:11:45;;;;;;;2.60;0.90;;;;;;;9.77;60.64;98818.84;113758;1193;137403;-82
2021/10/22 00:14:32;;;;;;;4.00;0.80;;;;;;;9.58;60.87;98830.02;113797;1192;108778;-83
2021/10/22 00:17:19;;;;;;;2.60;0.70;;;;;;;9.44;61.25;98834.88;113810;1193;138306;-82
2021/10/22 00:20:09;;;;;;;1.90;0.80;;;;;;;9.33;61.47;98842.03;113869;1193;97475;-82
2021/10/22 00:22:56;;;;;;;4.60;1.20;;;;;;;9.26;61.47;98849.34;114727;1192;112426;-80
2021/10/22 00:25:44;;;;;;;4.30;1.20;;;;;;;9.19;61.62;98849.70;114992;1192;137058;-82
2021/10/22 00:28:30;;;;;;;;;;;;;;;9.10;62.24;98842.48;114881;1193;107345;-81
2021/10/22 00:31:20;;;;;;;;;;;;;;;9.05;62.51;98850.02;114966;1192;125414;-81
2021/10/22 00:34:06;;;;;;;2.10;0.80;;;;;;;9.00;62.31;98859.09;115076;1192;96612;-81
2021/10/22 00:36:53;;;;;;;2.30;0.90;;;;;;;8.99;62.59;98851.86;115025;1192;137574;-81
2021/10/22 00:39:40;;;;;;;2.10;0.90;;;;;;;8.97;62.76;98859.55;114836;1193;108530;-81
2021/10/22 00:42:27;;;;;;;1.80;0.70;;;;;;;8.95;62.74;98865.38;114908;1192;138287;-81
2021/10/22 00:45:14;;;;;;;1.60;0.70;;;;;;;8.94;62.83;98862.47;115116;1192;95692;-82
2021/10/22 00:48:00;;;;;;;1.90;0.80;;;;;;;8.93;63.05;98862.02;114742;1192;139127;-81
2021/10/22 00:50:51;;;;;;;3.50;0.80;;;;;;;8.94;63.05;98865.59;115097;1192;112226;-82
2021/10/22 00:53:38;;;;;;;2.70;0.80;;;;;;;8.96;63.20;98872.98;115019;1192;137742;-81
2021/10/22 00:56:25;;;;;;;2.40;0.90;;;;;;;8.96;63.29;98883.86;114787;1192;109518;-81
2021/10/22 00:59:12;;;;;;;2.30;0.90;;;;;;;8.95;63.42;98890.16;114958;1192;95745;-81
2021/10/22 01:01:59;;;;;;;2.90;0.90;;;;;;;8.95;63.86;98878.02;114974;1192;137709;-81
2021/10/22 01:04:47;;;;;;;1.60;0.80;;;;;;;8.95;63.85;98894.34;115140;1192;112115;-81
2021/10/22 01:07:38;;;;;;;4.60;0.90;;;;;;;8.95;64.11;98894.34;114960;1192;137180;-80
2021/10/22 01:10:24;;;;;;;4.10;0.90;;;;;;;8.96;64.03;98901.73;115062;1192;108519;-80
2021/10/22 01:13:12;;;;;;;2.30;0.70;;;;;;;8.95;63.86;98906.14;114993;1192;137454;-81
2021/10/22 01:16:01;;;;;;;2.80;0.80;;;;;;;8.93;63.99;98906.74;115115;1192;95800;-81
2021/10/22 01:18:50;;;;;;;2.30;0.80;;;;;;;8.91;63.51;98916.02;114728;1193;137495;-81
2021/10/22 01:21:37;;;;;;;2.50;0.90;;;;;;;8.91;63.08;98920.20;115183;1192;108417;-81
2021/10/22 01:24:25;;;;;;;1.60;0.70;;;;;;;8.92;62.89;98930.03;114991;1192;137521;-82
2021/10/22 01:27:11;;;;;;;1.90;0.90;;;;;;;8.91;62.73;98934.05;115130;1184;96298;-81
2021/10/22 01:29:59;;;;;;;3.00;0.90;;;;;;;8.90;61.85;98933.91;115019;1193;138218;-81
2021/10/22 01:32:49;;;;;;;4.20;0.60;;;;;;;8.89;61.08;98936.06;115151;1192;112333;-81
2021/10/22 01:35:36;;;;;;;3.20;0.70;;;;;;;8.87;60.56;98939.95;115152;1192;108432;-81
2021/10/22 01:38:25;;;;;;;1.80;0.60;;;;;;;8.85;60.23;98937.63;114883;1193;107576;-81
2021/10/22 01:41:13;;;;;;;1.60;0.70;;;;;;;8.81;59.90;98945.45;114844;1193;95864;-82
2021/10/22 01:44:01;;;;;;;2.40;0.60;;;;;;;8.76;59.45;98952.08;114962;1192;137915;-81
2021/10/22 01:46:48;;;;;;;2.60;0.70;;;;;;;8.72;59.28;98948.79;114891;1192;112214;-81
2021/10/22 01:49:35;;;;;;;3.30;0.80;;;;;;;8.65;59.16;98945.29;114693;1193;136954;-81
2021/10/22 01:52:22;;;;;;;3.60;0.70;;;;;;;8.58;58.92;98955.66;115085;1192;108451;-81
2021/10/22 01:55:09;;;;;;;1.60;0.70;;;;;;;8.50;58.83;98962.11;114873;1192;137200;-80
2021/10/22 01:57:56;;;;;;;6.80;0.80;;;;;;;8.44;58.75;98961.31;115185;1192;95477;-81
2021/10/22 02:00:43;;;;;;;4.60;1.00;;;;;;;8.40;58.77;98962.50;114936;1192;137465;-81
2021/10/22 02:03:30;;;;;;;5.40;1.30;;;;;;;8.38;58.57;98976.11;115102;1192;108819;-80
2021/10/22 02:06:18;;;;;;;5.10;1.20;;;;;;;8.37;58.54;98971.14;114980;1192;137996;-80
2021/10/22 02:09:05;;;;;;;5.60;1.00;;;;;;;8.36;58.29;98962.88;113996;1192;97615;-83
2021/10/22 02:11:52;;;;;;;5.60;0.90;;;;;;;8.34;58.25;98979.42;113866;1192;97524;-80
2021/10/22 02:14:39;;;;;;;6.00;1.50;;;;;;;8.30;58.04;98978.88;113406;1192;137933;-80
2021/10/22 02:17:25;;;;;;;4.30;1.00;;;;;;;8.27;57.98;98984.19;113431;1193;108947;-82
2021/10/22 02:20:12;;;;;;;6.80;1.40;;;;;;;8.23;57.95;98978.45;113660;1193;137673;-80
2021/10/22 02:22:59;;;;;;;4.20;1.20;;;;;;;8.16;58.20;98989.65;113995;1193;97530;-81
2021/10/22 02:25:46;;;;;;;6.90;1.10;;;;;;;8.11;58.33;98999.08;114975;1192;137301;-81
2021/10/22 02:28:34;;;;;;;4.40;1.20;;;;;;;8.06;58.70;99004.98;115079;1192;110094;-82
2021/10/22 02:31:22;;;;;;;5.20;1.20;;;;;;;8.02;59.10;99005.84;114734;1193;137768;-81
2021/10/22 02:34:08;;;;;;;4.50;1.30;;;;;;;7.98;59.37;99005.15;115151;1192;108440;-82
2021/10/22 02:36:55;;;;;;;4.30;1.10;;;;;;;7.97;59.63;99006.95;114935;1192;138140;-83
2021/10/22 02:39:42;;;;;;;4.40;1.20;;;;;;;7.97;59.79;98994.98;115121;1192;95901;-82
2021/10/22 02:42:29;;;;;;;4.90;1.10;;;;;;;7.96;60.00;98996.39;115050;1192;137919;-82
2021/10/22 02:45:15;;;;;;;3.90;1.00;;;;;;;7.96;60.02;98999.52;115066;1192;108395;-82
2021/10/22 02:48:02;;;;;;;5.70;1.20;;;;;;;7.95;60.12;99005.45;114810;1192;108490;-82
2021/10/22 02:50:49;;;;;;;4.70;1.30;;;;;;;7.93;60.22;99007.42;114982;1192;138805;-81
2021/10/22 02:53:37;;;;;;;6.20;1.40;;;;;;;7.92;60.12;99004.22;115150;1192;95675;-83
2021/10/22 02:56:24;;;;;;;5.30;1.20;;;;;;;7.91;60.05;99011.19;115017;1192;137633;-82
2021/10/22 02:59:12;;;;;;;3.70;1.00;;;;;;;7.92;60.12;99021.34;115124;1192;108584;-82
2021/10/22 03:01:59;;;;;;;7.10;1.60;;;;;;;7.94;59.85;99025.92;115085;1192;137928;-81
2021/10/22 03:04:46;;;;;;;4.00;1.30;;;;;;;7.96;59.75;99030.86;115038;1192;95919;-81
2021/10/22 03:07:33;;;;;;;3.50;1.00;;;;;;;7.99;60.03;99036.63;114914;1192;137297;-81
2021/10/22 03:10:19;;;;;;;3.10;1.30;;;;;;;8.01;60.28;99032.70;115158;1192;112249;-82
2021/10/22 03:13:06;;;;;;;;;;;;;;;8.05;60.23;99033.25;114983;1192;138192;-80
2021/10/22 03:15:53;;;;;;;6.30;1.30;;;;;;;8.06;60.46;99038.02;114977;1193;108100;-81
2021/10/22 03:18:40;;;;;;;6.90;1.30;;;;;;;8.07;60.49;99034.35;115007;1192;137476;-82
2021/10/22 03:21:27;;;;;;;5.30;1.30;;;;;;;8.09;60.53;99044.36;115161;1192;96276;-81
2021/10/22 03:24:14;;;;;;;12.10;1.70;;;;;;;8.09;60.45;99041.05;114837;1193;112178;-81
2021/10/22 03:27:04;;;;;;;6.40;1.40;;;;;;;8.09;60.46;99042.26;113463;1193;137741;-80
2021/10/22 03:29:56;;;;;;;6.10;1.70;;;;;;;8.07;60.26;99050.98;115092;1192;108692;-82
2021/10/22 03:32:42;;;;;;;5.00;1.70;;;;;;;8.05;60.39;99053.85;114635;1192;137606;-82
2021/10/22 03:35:29;;;;;;;4.90;1.10;;;;;;;8.03;60.39;99059.65;115121;1192;96014;-81
2021/10/22 03:38:16;;;;;;;4.70;1.30;;;;;;;8.01;60.23;99061.63;114991;1192;136837;-80
2021/10/22 03:41:04;;;;;;;4.30;1.40;;;;;;;8.01;60.27;99071.34;115028;1192;107580;-81
2021/10/22 03:43:52;;;;;;;4.60;1.20;;;;;;;8.01;60.10;99077.20;114965;1192;137975;-81
2021/10/22 03:46:39;;;;;;;7.00;1.40;;;;;;;8.00;59.85;99077.76;114901;1192;95523;-83
2021/10/22 03:49:26;;;;;;;4.40;1.20;;;;;;;7.98;59.92;99072.65;115018;1192;137775;-83
2021/10/22 03:52:13;;;;;;;6.30;1.50;;;;;;;7.95;60.00;99091.48;113946;1192;112100;-81
2021/10/22 03:55:00;;;;;;;5.90;1.60;;;;;;;7.93;60.11;99100.76;113777;1192;138258;-81
2021/10/22 03:57:47;;;;;;;3.70;1.10;;;;;;;7.89;60.28;99103.98;113831;1193;108462;-81
2021/10/22 04:00:37;;;;;;;7.00;1.50;;;;;;;7.86;60.03;99108.23;113867;1193;97605;-81
2021/10/22 04:03:24;;;;;;;8.50;1.70;;;;;;;7.85;60.11;99110.88;115028;1192;137101;-82
2021/10/22 04:06:12;;;;;;;5.20;1.50;;;;;;;7.83;60.19;99106.31;114857;1193;111216;-82
2021/10/22 04:08:58;;;;;;;6.00;1.20;;;;;;;7.78;60.31;99113.41;115015;1192;137194;-81
2021/10/22 04:11:45;;;;;;;3.80;1.60;;;;;;;7.76;60.46;99120.93;115114;1192;108616;-82
2021/10/22 04:14:34;;;;;;;3.80;1.40;;;;;;;7.73;60.52;99116.38;114905;1192;138541;-81
2021/10/22 04:17:20;;;;;;;6.20;1.40;;;;;;;7.73;60.60;99126.45;115126;1192;97073;-82
2021/10/22 04:20:08;;;;;;;6.10;1.30;;;;;;;7.72;60.58;99131.13;115028;1192;137481;-82
2021/10/22 04:22:55;;;;;;;4.80;1.60;;;;;;;7.68;60.61;99128.86;114786;1192;107583;-81
2021/10/22 04:25:42;;;;;;;6.30;1.20;;;;;;;7.63;60.70;99135.27;114091;1192;136900;-80
2021/10/22 04:28:29;;;;;;;;;;;;;;;7.59;60.88;99137.34;115141;1192;95565;-82
2021/10/22 04:31:16;;;;;;;4.90;1.80;;;;;;;7.53;61.04;99136.15;114279;1192;124543;-81
2021/10/22 04:34:03;;;;;;;6.80;1.60;;;;;;;7.47;61.11;99134.15;113867;1192;111351;-81
2021/10/22 04:36:50;;;;;;;7.00;1.60;;;;;;;7.40;61.27;99134.77;113880;1192;106960;-80
2021/10/22 04:42:47;;;;;;;6.40;1.90;;;;;;;7.33;61.66;99154.02;113859;1193;97526;-80
2021/10/22 04:45:39;;;;;;;4.20;1.70;;;;;;;7.28;61.72;99152.48;113348;1193;136909;-80
2021/10/22 04:48:26;;;;;;;5.80;1.50;;;;;;;7.25;61.72;99152.23;113765;1193;112089;-81
2021/10/22 04:51:14;;;;;;;7.30;1.80;;;;;;;7.21;61.81;99148.42;113329;1193;137112;-81
2021/10/22 04:54:01;;;;;;;8.90;2.00;;;;;;;7.14;62.17;99154.17;113502;1193;108655;-81
2021/10/22 04:56:50;;;;;;;4.90;1.50;;;;;;;7.06;62.21;99157.27;113679;1192;136722;-81
2021/10/22 04:59:37;;;;;;;3.80;1.80;;;;;;;7.00;62.29;99171.81;113795;1193;97482;-80
2021/10/22 05:02:24;;;;;;;3.60;1.40;;;;;;;6.94;62.42;99166.98;113589;1193;137125;-81
2021/10/22 05:05:12;;;;;;;8.40;1.80;;;;;;;6.89;62.68;99176.52;113114;1193;109083;-81
2021/10/22 05:07:58;;;;;;;7.80;1.70;;;;;;;6.86;62.79;99175.40;113687;1176;137119;-80
2021/10/22 05:10:45;;;;;;;9.30;2.20;;;;;;;6.85;62.75;99179.23;113766;1193;97519;-80
2021/10/22 05:13:32;;;;;;;4.80;1.90;;;;;;;6.84;62.81;99180.14;113895;1192;137173;-82
2021/10/22 05:16:19;;;;;;;5.80;1.40;;;;;;;6.84;63.08;99180.34;114385;1192;111046;-80
2021/10/22 05:19:06;;;;;;;5.00;1.70;;;;;;;6.86;62.90;99192.85;113535;1192;108140;-81
2021/10/22 05:21:53;;;;;;;4.70;1.40;;;;;;;6.89;62.90;99188.11;113350;1193;137147;-81
2021/10/22 05:24:40;;;;;;;4.50;1.50;;;;;;;6.87;62.77;99195.79;113047;1193;97539;-80
2021/10/22 05:27:26;;;;;;;5.40;1.90;;;;;;;6.85;62.83;99194.96;113413;1192;137257;-79
2021/10/22 05:30:14;;;;;;;8.00;1.90;;;;;;;6.85;62.93;99205.16;113465;1193;113432;-79
2021/10/22 05:33:01;;;;;;;6.50;1.40;;;;;;;6.82;62.73;99212.52;113672;1192;137712;-80
2021/10/22 05:35:48;;;;;;;4.90;1.50;;;;;;;6.80;63.16;99214.98;115113;1192;109732;-81
2021/10/22 05:38:35;;;;;;;4.80;1.60;;;;;;;6.80;62.93;99214.98;114984;1192;138728;-80
2021/10/22 05:41:21;;;;;;;4.90;1.50;;;;;;;6.83;62.79;99218.03;115215;1192;95671;-80
2021/10/22 05:44:08;;;;;;;5.10;1.60;;;;;;;6.84;62.80;99222.14;113843;1193;137645;-80
2021/10/22 05:46:57;;;;;;;8.90;1.90;;;;;;;6.91;62.77;99217.21;113427;1192;107543;-80
2021/10/22 05:49:44;;;;;;;6.10;1.80;;;;;;;7.04;62.46;99226.10;113133;1193;137346;-80
2021/10/22 05:52:31;;;;;;;6.30;1.70;;;;;;;7.20;62.23;99227.80;113554;1193;97990;-83
2021/10/22 05:55:18;;;;;;;;;;;;;;;7.41;61.86;99223.80;113751;1193;97702;-80
2021/10/22 05:58:05;;;;;;;4.70;1.60;;;;;;;7.64;61.33;99236.10;113706;1193;124079;-79
2021/10/22 06:00:52;;;;;;;;;;;;;;;7.90;60.74;99232.90;113685;1192;108622;-80
2021/10/22 06:03:38;;;;;;;5.60;1.70;;;;;;;8.16;60.04;99233.09;113674;1193;124224;-80
2021/10/22 06:06:26;;;;;;;6.70;1.80;;;;;;;8.45;59.36;99239.29;113821;1193;97522;-81
2021/10/22 06:09:14;;;;;;;5.70;1.60;;;;;;;8.95;58.49;99244.35;113727;1192;137546;-81
2021/10/22 06:12:02;;;;;;;7.00;1.80;;;;;;;9.56;57.35;99247.11;114909;1192;112820;-82
2021/10/22 06:14:48;;;;;;;8.70;1.90;;;;;;;10.16;56.46;99250.70;114949;1192;137316;-81
2021/10/22 06:17:35;;;;;;;5.00;1.80;;;;;;;10.79;55.48;99238.64;115062;1192;107335;-80
2021/10/22 06:20:30;;;;;;;6.70;1.90;;;;;;;11.42;54.03;99249.02;114671;1193;138149;-80
2021/10/22 06:26:27;;;;;;;5.30;1.80;;;;;;;12.32;52.44;99241.27;114667;1193;137428;-82
2021/10/22 06:29:14;;;;;;;6.70;1.90;;;;;;;12.47;51.74;99252.81;114837;1193;108710;-81
2021/10/22 06:32:02;;;;;;;4.90;2.20;;;;;;;12.32;51.25;99256.84;114736;1192;139042;-81
2021/10/22 06:34:48;;;;;;;7.80;1.70;;;;;;;12.15;50.71;99262.25;114785;1193;95553;-84
2021/10/22 06:37:35;;;;;;;6.70;1.90;;;;;;;12.05;50.53;99270.84;114527;1184;96022;-81
2021/10/22 06:40:23;;;;;;;4.40;1.80;;;;;;;12.10;50.68;99271.26;113657;1193;137192;-81
2021/10/22 06:43:10;;;;;;;8.70;2.10;;;;;;;12.21;50.37;99272.75;113736;1192;108647;-81
2021/10/22 06:45:57;;;;;;;6.60;2.20;;;;;;;12.37;49.94;99277.23;113640;1193;137407;-80
2021/10/22 06:48:45;;;;;;;4.30;1.40;;;;;;;12.55;49.37;99281.70;113344;1193;97580;-79
2021/10/22 06:51:32;;;;;;;7.40;2.10;;;;;;;12.67;48.99;99278.89;115023;1192;137330;-80
2021/10/22 06:54:18;;;;;;;4.80;1.70;;;;;;;12.97;48.83;99282.98;115089;1192;112356;-81
2021/10/22 06:57:05;;;;;;;7.80;2.20;;;;;;;13.33;48.27;99282.48;114887;1192;137470;-81
2021/10/22 06:59:51;;;;;;;7.60;2.10;;;;;;;13.68;47.10;99291.56;114868;1192;108457;-81
2021/10/22 07:02:52;;;;;;;3.70;1.60;;;;;;;14.02;46.47;99279.70;114930;1192;138312;-80
2021/10/22 07:08:28;;;;;;;5.00;1.70;;;;;;;14.27;45.38;99294.77;114678;1192;137974;-83
2021/10/22 07:11:17;;;;;;;5.80;2.00;;;;;;;13.64;45.72;99295.27;113380;1193;108597;-83
2021/10/22 07:14:07;;;;;;;5.10;1.80;;;;;;;13.01;46.44;99306.45;113465;1193;137958;-82
2021/10/22 07:16:54;;;;;;;5.20;2.00;;;;;;;12.41;47.33;99313.48;113722;1192;97515;-83
2021/10/22 07:19:41;;;;;;;11.80;2.40;;;;;;;11.88;48.11;99316.30;113704;1192;98260;-83
2021/10/22 07:22:32;;;;;;;6.60;2.10;;;;;;;11.42;48.78;99317.08;113620;1193;136446;-84
2021/10/22 07:25:21;;;;;;;9.90;2.50;;;;;;;10.98;49.88;99325.21;113634;1193;108953;-82
2021/10/22 07:28:13;;;;;;;7.70;1.90;;;;;;;10.71;50.42;99322.83;113451;1193;137889;-81
2021/10/22 07:31:02;;;;;;;4.00;1.80;;;;;;;10.42;51.07;99329.09;113603;1193;97496;-81
2021/10/22 07:33:49;;;;;;;;;;;;;;;10.37;51.43;99333.66;114350;1192;137202;-82
2021/10/22 07:36:36;;;;;;;5.80;2.00;;;;;;;10.51;51.37;99337.52;115051;1192;112151;-83
2021/10/22 07:39:24;;;;;;;8.20;2.00;;;;;;;10.51;51.64;99343.57;114890;1192;137517;-81
2021/10/22 07:42:28;;;;;;;6.50;2.20;;;;;;;10.74;51.52;99342.19;114856;1192;107582;-83
2021/10/22 07:45:15;;;;;;;5.60;1.70;;;;;;;11.53;50.62;99348.05;114950;1192;137317;-85
2021/10/22 07:48:01;;;;;;;4.20;1.90;;;;;;;11.99;49.76;99342.21;114851;1192;96691;-83
2021/10/22 07:50:48;;;;;;;5.60;2.00;;;;;;;12.85;48.62;99339.31;113677;1186;137401;-82
2021/10/22 07:53:35;;;;;;;5.40;2.10;;;;;;;13.20;46.34;99338.22;113708;1192;106924;-83
2021/10/22 07:56:22;;;;;;;7.50;2.00;;;;;;;13.05;45.97;99346.05;113598;1193;136557;-81
2021/10/22 07:59:10;;;;;;;8.20;2.50;;;;;;;13.18;45.87;99352.61;115015;1192;96418;-83
2021/10/22 08:02:18;;;;;;;7.20;2.10;;;;;;;13.47;45.49;99347.30;114452;1193;138032;-82
2021/10/22 08:05:07;;;;;;;7.80;2.20;;;;;;;13.18;45.65;99352.30;114917;1192;112577;-82
2021/10/22 08:07:53;;;;;;;8.50;2.30;;;;;;;12.79;46.21;99357.43;114084;1192;108885;-85
2021/10/22 08:10:41;;;;;;;6.30;2.10;;;;;;;12.78;46.85;99362.92;113651;1192;137230;-83
2021/10/22 08:13:28;;;;;;;6.60;2.10;;;;;;;12.91;46.86;99366.16;113627;1192;97644;-81
2021/10/22 08:16:16;;;;;;;4.00;1.50;;;;;;;12.95;46.44;99361.94;113220;1192;137190;-82
2021/10/22 08:19:03;;;;;;;6.30;2.00;;;;;;;12.70;45.94;99364.23;113345;1192;112017;-82
2021/10/22 08:25:21;;;;;;;5.20;1.90;;;;;;;12.14;46.89;99365.30;113442;1193;108941;-81
2021/10/22 08:28:08;;;;;;;7.80;2.10;;;;;;;11.90;47.29;99372.30;113579;1193;137482;-83
2021/10/22 08:30:55;;;;;;;8.40;2.20;;;;;;;11.81;47.68;99369.11;113735;1192;97639;-81
2021/10/22 08:33:43;;;;;;;7.00;2.20;;;;;;;11.77;47.79;99372.07;113494;1193;138078;-82
2021/10/22 08:36:30;;;;;;;7.10;2.30;;;;;;;11.63;47.80;99363.75;113634;1193;109166;-83
2021/10/22 08:39:17;;;;;;;7.90;2.00;;;;;;;11.42;48.06;99378.17;114076;1193;137559;-81
2021/10/22 08:42:04;;;;;;;8.00;2.10;;;;;;;11.27;48.43;99378.91;115003;1192;95912;-83
2021/10/22 08:44:53;;;;;;;9.00;2.10;;;;;;;11.16;48.40;99369.74;113852;1193;137434;-81
2021/10/22 08:47:40;;;;;;;8.90;2.20;;;;;;;11.25;48.67;99382.31;113697;1192;112207;-82
2021/10/22 08:50:32;;;;;;;8.70;2.00;;;;;;;11.50;48.62;99380.21;113574;1192;137541;-84
2021/10/22 08:53:19;;;;;;;7.50;2.20;;;;;;;11.62;48.25;99379.95;113677;1193;107657;-82
2021/10/22 08:56:06;;;;;;;9.30;2.50;;;;;;;11.66;48.30;99378.55;113635;1193;97560;-83
2021/10/22 08:58:53;;;;;;;6.60;2.30;;;;;;;11.86;48.22;99383.80;113573;1193;137177;-81
2021/10/22 09:02:21;;;;;;;8.10;2.20;;;;;;;12.14;47.64;99389.69;113512;1193;112502;-81
2021/10/22 09:05:16;;;;;;;9.70;2.30;;;;;;;12.64;47.09;99387.57;114085;1196;138461;-81
2021/10/22 09:08:07;;;;;;;6.90;2.20;;;;;;;13.22;46.54;99382.41;114319;1196;108578;-83
2021/10/22 09:10:54;;;;;;;7.50;2.10;;;;;;;13.45;45.94;99380.80;114162;1196;138049;-82
2021/10/22 09:13:41;;;;;;;9.80;2.50;;;;;;;13.39;45.42;99379.39;114328;1196;96926;-82
2021/10/22 09:16:28;;;;;;;7.40;1.70;;;;;;;13.24;45.06;99381.27;114176;1196;137151;-82
2021/10/22 09:19:34;;;;;;;7.10;2.30;;;;;;;12.89;44.84;99375.20;114111;1196;107568;-81
2021/10/22 09:22:25;;;;;;;7.20;2.10;;;;;;;12.54;45.35;99384.80;114196;1196;137727;-82
2021/10/22 09:25:12;;;;;;;6.00;2.10;;;;;;;12.26;45.82;99382.29;114315;1196;95971;-81
2021/10/22 09:28:00;;;;;;;7.10;2.40;;;;;;;12.08;46.27;99387.25;114304;1196;137217;-80
2021/10/22 09:30:47;;;;;;;7.50;1.90;;;;;;;11.95;46.41;99387.40;114351;1196;112436;-82
2021/10/22 09:33:34;;;;;;;7.90;2.40;;;;;;;11.91;46.73;99391.41;114269;1196;137732;-81
2021/10/22 09:36:41;;;;;;;9.50;2.70;;;;;;;11.90;47.07;99390.26;114762;1193;108607;-81
2021/10/22 09:39:34;;;;;;;10.90;2.20;;;;;;;11.87;47.20;99385.20;114910;1192;138305;-81
2021/10/22 09:42:20;;;;;;;5.40;2.00;;;;;;;11.81;47.07;99386.88;114945;1193;95810;-82
2021/10/22 09:45:09;;;;;;;8.70;2.50;;;;;;;11.69;47.31;99382.75;114895;1192;140913;-82
2021/10/22 09:47:55;;;;;;;8.90;2.60;;;;;;;11.57;47.10;99385.98;114639;1193;109838;-80
2021/10/22 09:50:42;;;;;;;7.20;2.20;;;;;;;11.36;47.29;99390.13;114683;1192;107993;-81
2021/10/22 09:53:35;;;;;;;5.90;2.10;;;;;;;11.23;47.57;99387.45;114735;1193;96127;-81
2021/10/22 09:56:25;;;;;;;7.00;2.20;;;;;;;11.19;47.85;99389.78;115020;1192;95864;-81
2021/10/22 09:59:23;;;;;;;9.40;2.80;;;;;;;11.24;48.04;99387.27;114894;1192;137141;-81
2021/10/22 10:02:11;;;;;;;7.40;2.20;;;;;;;11.29;47.86;99386.10;114624;1192;108613;-82
2021/10/22 10:04:59;;;;;;;8.80;2.40;;;;;;;11.31;47.51;99387.79;114924;1192;138383;-83
2021/10/22 10:07:46;;;;;;;8.40;2.10;;;;;;;11.31;47.30;99388.14;114993;1193;95983;-82
2021/10/22 10:10:33;;;;;;;11.10;2.90;;;;;;;11.29;47.26;99383.02;114850;1193;137108;-83
2021/10/22 10:13:20;;;;;;;7.20;2.70;;;;;;;11.42;47.51;99374.89;114585;1192;112362;-82
2021/10/22 10:16:07;;;;;;;6.80;2.30;;;;;;;11.73;47.64;99375.92;113595;1193;137405;-83
2021/10/22 10:19:07;;;;;;;;;;;;;;;12.09;46.70;99379.17;113667;1192;108400;-81
2021/10/22 10:21:59;;;;;;;8.00;2.40;;;;;;;12.23;45.60;99377.59;113318;1193;124856;-81
2021/10/22 10:24:55;;;;;;;9.10;2.50;;;;;;;12.24;45.85;99370.02;113777;1191;97584;-82
2021/10/22 10:27:47;;;;;;;12.20;3.00;;;;;;;12.33;46.01;99365.88;113439;1193;137594;-81
2021/10/22 10:30:39;;;;;;;7.30;2.20;;;;;;;12.55;45.51;99370.59;113263;1193;108737;-82
2021/10/22 10:33:33;;;;;;;8.60;2.60;;;;;;;12.83;45.16;99364.06;114840;1192;139485;-82
2021/10/22 10:36:44;;;;;;;6.50;2.40;;;;;;;13.11;44.80;99360.38;115010;1192;95896;-82
2021/10/22 10:39:43;;;;;;;9.50;2.60;;;;;;;13.32;43.93;99364.25;114893;1192;137394;-82
2021/10/22 10:42:29;;;;;;;9.30;2.60;;;;;;;13.32;44.23;99355.20;114832;1193;112948;-81
2021/10/22 10:45:25;;;;;;;8.10;2.30;;;;;;;13.08;43.26;99365.95;114786;1192;137902;-84
2021/10/22 10:48:21;;;;;;;9.70;2.50;;;;;;;12.81;43.57;99349.80;114753;1193;107211;-82
2021/10/22 10:51:07;;;;;;;9.10;2.60;;;;;;;12.60;44.06;99353.26;114881;1192;95770;-79
2021/10/22 10:54:02;;;;;;;7.20;2.20;;;;;;;12.46;44.46;99351.08;115005;1193;96290;-78
2021/10/22 10:56:49;;;;;;;9.60;2.60;;;;;;;12.43;44.64;99345.98;115020;1193;111493;-82
2021/10/22 10:59:43;;;;;;;9.00;2.40;;;;;;;12.43;45.21;99345.98;114894;1192;137342;-80
2021/10/22 11:03:02;;;;;;;5.80;2.00;;;;;;;12.56;45.28;99344.06;114950;1184;108616;-81
2021/10/22 11:05:49;;;;;;;7.10;2.30;;;;;;;12.65;45.05;99337.27;114831;1185;137958;-81
2021/10/22 11:08:38;;;;;;;7.20;2.50;;;;;;;12.57;45.00;99333.39;114783;1192;96984;-81
2021/10/22 11:11:29;;;;;;;8.10;2.30;;;;;;;12.48;45.33;99341.17;114584;1193;137295;-82
2021/10/22 11:14:17;;;;;;;8.50;2.50;;;;;;;12.53;44.81;99348.55;115039;1192;107936;-82
2021/10/22 11:17:03;;;;;;;8.70;2.30;;;;;;;12.51;44.00;99342.39;114845;1192;137504;-83
2021/10/22 11:19:53;;;;;;;7.20;1.90;;;;;;;12.47;44.03;99345.95;114803;1192;95829;-82
2021/10/22 11:22:41;;;;;;;5.40;2.20;;;;;;;12.51;44.17;99329.01;114660;1193;139229;-81
2021/10/22 11:25:29;;;;;;;14.20;2.40;;;;;;;12.48;44.11;99341.02;115021;1192;112346;-81
2021/10/22 11:28:28;;;;;;;6.00;2.40;;;;;;;12.41;43.80;99331.29;114906;1192;138350;-80
2021/10/22 11:31:37;;;;;;;6.40;2.10;;;;;;;12.22;44.04;99331.23;114993;1192;108399;-81
2021/10/22 11:34:24;;;;;;;;;;;;;;;12.01;44.21;99336.17;114573;1193;137961;-79
2021/10/22 11:37:15;;;;;;;7.80;2.10;;;;;;;11.87;44.21;99332.06;114946;1193;96025;-80
2021/10/22 11:40:05;;;;;;;9.20;2.10;;;;;;;11.77;44.36;99333.56;114770;1192;137363;-80
2021/10/22 11:42:52;;;;;;;6.60;2.00;;;;;;;11.81;44.36;99334.77;114986;1192;108603;-79
2021/10/22 11:45:41;;;;;;;5.80;1.90;;;;;;;11.91;44.58;99326.80;114736;1192;138332;-80
2021/10/22 11:48:33;;;;;;;7.00;2.10;;;;;;;12.10;44.86;99327.19;114716;1193;96748;-80
2021/10/22 11:51:21;;;;;;;6.60;1.90;;;;;;;12.37;44.95;99329.23;114963;1193;96290;-78
2021/10/22 11:54:10;;;;;;;9.00;2.20;;;;;;;12.50;44.34;99323.80;114697;1192;137456;-79
2021/10/22 11:56:59;;;;;;;6.90;2.10;;;;;;;12.50;43.91;99321.52;114771;1193;107823;-78
2021/10/22 11:59:54;;;;;;;6.00;1.90;;;;;;;12.36;43.71;99329.27;114642;1193;137404;-79
2021/10/22 12:02:42;;;;;;;6.10;1.80;;;;;;;12.21;43.74;99317.71;114666;1192;96345;-78
2021/10/22 12:05:30;;;;;;;;;;;;;;;12.07;43.94;99321.97;114800;1192;137223;-78
2021/10/22 12:08:17;;;;;;;7.60;2.30;;;;;;;11.92;43.79;99322.73;115062;1192;112365;-78
2021/10/22 12:11:04;;;;;;;6.70;2.20;;;;;;;11.71;43.74;99325.88;114888;1192;137604;-78
2021/10/22 12:13:52;;;;;;;6.20;1.80;;;;;;;11.49;44.26;99320.20;114973;1193;108688;-78
2021/10/22 12:16:39;;;;;;;8.60;2.30;;;;;;;11.33;44.40;99319.11;114850;1192;137430;-78
2021/10/22 12:19:25;;;;;;;6.50;2.10;;;;;;;11.17;44.65;99327.20;114983;1193;95798;-77
2021/10/22 12:22:14;;;;;;;8.10;1.80;;;;;;;11.04;45.19;99324.40;114755;1192;137537;-77
2021/10/22 12:25:17;;;;;;;6.40;2.00;;;;;;;10.99;45.56;99330.91;114915;1192;108558;-77
2021/10/22 12:28:14;;;;;;;9.10;2.10;;;;;;;10.93;45.83;99333.45;114828;1192;137556;-76
2021/10/22 12:31:08;;;;;;;4.00;1.90;;;;;;;10.86;45.82;99329.09;114854;1193;96940;-77
2021/10/22 12:34:09;;;;;;;7.30;2.10;;;;;;;10.76;45.80;99326.23;114865;1192;139382;-77
2021/10/22 12:37:08;;;;;;;5.10;1.80;;;;;;;10.71;46.00;99326.85;115035;1193;112391;-78
2021/10/22 12:39:55;;;;;;;6.00;1.80;;;;;;;10.63;45.91;99331.23;113905;1193;137967;-78
2021/10/22 12:42:43;;;;;;;7.80;1.80;;;;;;;10.55;46.09;99328.27;113428;1193;108480;-77
2021/10/22 12:45:29;;;;;;;8.10;1.80;;;;;;;10.49;46.45;99327.54;114917;1192;96237;-78
2021/10/22 12:48:22;;;;;;;4.40;1.70;;;;;;;10.47;46.77;99317.56;114846;1192;137119;-79
2021/10/22 12:51:22;;;;;;;7.10;1.90;;;;;;;10.47;46.85;99322.59;113767;1193;110482;-79
2021/10/22 12:54:09;;;;;;;9.30;2.30;;;;;;;10.45;46.88;99320.77;113568;1193;137456;-78
2021/10/22 12:56:59;;;;;;;5.20;1.90;;;;;;;10.45;47.10;99318.32;113705;1193;108548;-78
2021/10/22 12:59:46;;;;;;;6.10;1.70;;;;;;;10.44;47.02;99312.30;113529;1193;137512;-79
2021/10/22 13:02:32;;;;;;;6.60;1.80;;;;;;;10.41;47.13;99310.53;113732;1192;97583;-80
2021/10/22 13:05:24;;;;;;;7.70;2.00;;;;;;;10.40;47.23;99313.32;113558;1193;137226;-77
2021/10/22 13:14:49;;;;;;;5.50;1.60;;;;;;;10.35;47.51;99305.40;114976;1192;96038;-78
2021/10/22 13:20:45;;;;;;;6.50;1.70;;;;;;;10.25;47.17;99305.02;115080;1193;112253;-78
2021/10/22 13:23:32;;;;;;;7.10;1.90;;;;;;;10.21;47.31;99309.67;114955;1192;137527;-78
2021/10/22 13:26:20;;;;;;;8.10;2.10;;;;;;;10.17;47.61;99303.73;114995;1192;108563;-77